Terminal Aerodrome Forecast
Issued by NWS Denver/Boulder, CO

Home | Current Version | Previous Version | Text Only | Print | Product List | Glossary On
Versions: 1 2 3 4 5 6 7 8 9 10 11 12 13 14 15 16 17 18 19 20 21 22 23 24 25 26 27 28 29 30 31 32 33
000
FTUS45 KBOU 250521
TAFDEN
TAF
KDEN 250521Z 2506/2612 22008KT P6SM SKC
     FM251600 VRB05KT P6SM SKC
     FM251900 14007KT P6SM SKC
     FM252200 10009KT P6SM SKC
     FM260200 15008KT P6SM SKC
     FM260400 20010KT P6SM FEW250=

USA.gov is the U.S. government's official web portal to all federal, state and local government web resources and services.